createdAt,value
2023-05-03T00:01:19.977Z,5.20
2023-05-03T00:03:47.446Z,4.90
2023-05-03T00:06:15.298Z,5.10
2023-05-03T00:08:42.735Z,5.00
2023-05-03T00:11:09.735Z,4.90
2023-05-03T00:13:36.689Z,4.80
2023-05-03T00:16:03.824Z,4.80
2023-05-03T00:18:30.872Z,5.10
2023-05-03T00:20:58.948Z,4.80
2023-05-03T00:23:26.737Z,5.00
2023-05-03T00:25:54.725Z,5.20
2023-05-03T00:28:21.527Z,4.80
2023-05-03T00:30:48.407Z,5.40
2023-05-03T00:33:16.631Z,5.30
2023-05-03T00:35:44.112Z,6.20
2023-05-03T00:38:11.454Z,5.50
2023-05-03T00:40:38.298Z,5.10
2023-05-03T00:43:05.126Z,5.00
2023-05-03T00:45:33.581Z,5.30
2023-05-03T00:48:00.862Z,5.10
2023-05-03T00:50:28.154Z,4.90
2023-05-03T00:52:55.072Z,5.40
2023-05-03T00:55:21.913Z,5.30
2023-05-03T00:57:48.856Z,4.80
2023-05-03T01:00:16.558Z,4.60
2023-05-03T01:02:43.400Z,5.20
2023-05-03T01:05:11.015Z,4.90
2023-05-03T01:07:49.901Z,5.30
2023-05-03T01:10:40.549Z,5.20
2023-05-03T01:13:23.456Z,4.80
2023-05-03T01:16:08.384Z,4.70
2023-05-03T01:18:39.160Z,4.90
2023-05-03T01:21:06.607Z,4.80
2023-05-03T01:23:33.375Z,4.50
2023-05-03T01:26:01.223Z,4.80
2023-05-03T01:28:28.065Z,5.40
2023-05-03T01:30:55.543Z,5.70
2023-05-03T01:33:30.560Z,5.40
2023-05-03T01:36:03.076Z,4.60
2023-05-03T01:38:31.001Z,4.90
2023-05-03T01:40:59.449Z,4.70
2023-05-03T01:43:26.622Z,5.30
2023-05-03T01:45:53.366Z,4.70
2023-05-03T01:48:20.291Z,4.40
2023-05-03T01:50:47.196Z,4.30
2023-05-03T01:53:14.119Z,4.20
2023-05-03T01:55:41.892Z,4.50
2023-05-03T01:58:08.733Z,4.00
2023-05-03T02:00:36.778Z,3.50
2023-05-03T02:03:03.560Z,3.60
2023-05-03T02:05:30.297Z,3.60
2023-05-03T02:07:57.096Z,3.70
2023-05-03T02:10:24.251Z,4.20
2023-05-03T02:12:51.016Z,3.70
2023-05-03T02:15:20.142Z,3.40
2023-05-03T02:17:49.735Z,3.80
2023-05-03T02:20:16.840Z,3.80
2023-05-03T02:22:43.589Z,3.50
2023-05-03T02:25:10.379Z,3.90
2023-05-03T02:27:37.784Z,4.00
2023-05-03T02:30:06.705Z,4.20
2023-05-03T02:32:36.530Z,4.00
2023-05-03T02:35:03.553Z,4.00
2023-05-03T02:37:30.942Z,3.60
2023-05-03T02:39:58.170Z,3.90
2023-05-03T02:42:25.223Z,3.90
2023-05-03T02:44:52.554Z,4.20
2023-05-03T02:47:19.267Z,3.80
2023-05-03T02:49:46.236Z,4.10
2023-05-03T02:52:13.184Z,3.80
2023-05-03T02:54:39.968Z,4.10
2023-05-03T02:57:08.395Z,4.90
2023-05-03T02:59:35.420Z,3.90
2023-05-03T03:02:02.424Z,3.90
2023-05-03T03:04:29.892Z,4.50
2023-05-03T03:06:57.182Z,4.00
2023-05-03T03:09:24.356Z,3.90
2023-05-03T03:11:52.099Z,3.30
2023-05-03T03:14:19.258Z,3.60
2023-05-03T03:16:46.155Z,3.40
2023-05-03T03:19:13.976Z,4.10
2023-05-03T03:21:41.757Z,3.70
2023-05-03T03:24:09.016Z,3.60
2023-05-03T03:26:35.756Z,3.40
2023-05-03T03:29:02.735Z,3.80
2023-05-03T03:31:30.206Z,3.90
2023-05-03T03:33:57.278Z,3.50
2023-05-03T03:36:24.779Z,3.10
2023-05-03T03:38:52.012Z,3.70
2023-05-03T03:41:19.526Z,3.80
2023-05-03T03:43:46.573Z,3.60
2023-05-03T03:46:15.199Z,3.20
2023-05-03T03:48:42.722Z,3.70
2023-05-03T03:51:09.452Z,3.20
2023-05-03T03:53:39.381Z,3.20
2023-05-03T03:56:06.424Z,4.30
2023-05-03T03:58:33.716Z,2.90
2023-05-03T04:01:01.487Z,4.00
2023-05-03T04:03:28.693Z,3.90
2023-05-03T04:05:55.637Z,3.60
2023-05-03T04:08:22.847Z,5.00
2023-05-03T04:10:50.887Z,5.70
2023-05-03T04:13:17.991Z,4.90
2023-05-03T04:15:46.497Z,5.70
2023-05-03T04:18:13.742Z,6.70
2023-05-03T04:20:41.195Z,6.90
2023-05-03T04:23:08.380Z,7.30
2023-05-03T04:25:37.199Z,6.10
2023-05-03T04:28:09.411Z,5.60
2023-05-03T04:30:38.037Z,4.50
2023-05-03T04:33:05.132Z,3.90
2023-05-03T04:35:34.242Z,4.40
2023-05-03T04:38:04.272Z,4.20
2023-05-03T04:40:31.544Z,4.00
2023-05-03T04:43:05.373Z,3.50
2023-05-03T04:45:34.154Z,3.40
2023-05-03T04:48:01.913Z,3.30
2023-05-03T04:50:28.669Z,3.70
2023-05-03T04:52:55.591Z,3.20
2023-05-03T04:55:23.669Z,3.70
2023-05-03T04:57:52.299Z,3.40
2023-05-03T05:00:19.381Z,3.40
2023-05-03T05:02:50.783Z,3.80
2023-05-03T05:05:18.927Z,2.90
2023-05-03T05:07:49.076Z,3.00
2023-05-03T05:10:16.545Z,3.20
2023-05-03T05:12:43.364Z,3.20
2023-05-03T05:15:10.746Z,3.20
2023-05-03T05:17:37.955Z,3.10
2023-05-03T05:20:07.389Z,2.90
2023-05-03T05:22:34.542Z,3.10
2023-05-03T05:25:01.578Z,3.50
2023-05-03T05:27:28.956Z,3.30
2023-05-03T05:29:56.220Z,2.90
2023-05-03T05:32:23.024Z,3.30
2023-05-03T05:34:56.008Z,3.50
2023-05-03T05:37:25.518Z,2.90
2023-05-03T05:39:53.589Z,3.30
2023-05-03T05:42:21.057Z,3.10
2023-05-03T05:44:47.828Z,2.60
2023-05-03T05:47:15.198Z,3.30
2023-05-03T05:49:42.845Z,3.10
2023-05-03T05:52:10.618Z,3.00
2023-05-03T05:54:37.758Z,2.50
2023-05-03T05:57:04.736Z,2.70
2023-05-03T05:59:31.653Z,2.60
2023-05-03T06:02:00.511Z,2.60
2023-05-03T06:04:28.715Z,2.40
2023-05-03T06:06:56.471Z,2.20
2023-05-03T06:09:24.993Z,2.20
2023-05-03T06:11:56.118Z,2.20
2023-05-03T06:14:23.475Z,2.80
2023-05-03T06:16:50.929Z,3.50
2023-05-03T06:19:18.124Z,3.00
2023-05-03T06:21:44.954Z,2.80
2023-05-03T06:24:11.795Z,2.60
2023-05-03T06:26:39.158Z,2.40
2023-05-03T06:29:06.557Z,2.30
2023-05-03T06:31:33.883Z,2.40
2023-05-03T06:34:00.978Z,2.00
2023-05-03T06:36:29.958Z,1.80
2023-05-03T06:38:57.178Z,2.60
2023-05-03T06:41:23.893Z,2.40
2023-05-03T06:43:50.708Z,2.10
2023-05-03T06:46:19.620Z,2.00
2023-05-03T06:48:47.151Z,2.00
2023-05-03T06:51:14.695Z,1.60
2023-05-03T06:53:41.530Z,2.30
2023-05-03T06:56:08.286Z,1.60
2023-05-03T06:58:35.081Z,2.30
2023-05-03T07:01:01.908Z,1.70
2023-05-03T07:03:28.767Z,1.90
2023-05-03T07:05:57.118Z,2.10
2023-05-03T07:08:23.857Z,2.20
2023-05-03T07:10:50.630Z,2.10
2023-05-03T07:13:17.440Z,2.70
2023-05-03T07:15:45.912Z,3.90
2023-05-03T07:18:12.985Z,2.80
2023-05-03T07:20:39.822Z,2.10
2023-05-03T07:23:07.354Z,2.30
2023-05-03T07:25:34.108Z,1.30
2023-05-03T07:28:01.434Z,1.40
2023-05-03T07:30:29.470Z,1.70
2023-05-03T07:32:56.404Z,1.60
2023-05-03T07:35:23.358Z,2.00
2023-05-03T07:37:50.121Z,2.00
2023-05-03T07:40:16.884Z,2.40
2023-05-03T07:42:43.882Z,1.70
2023-05-03T07:45:10.877Z,1.60
2023-05-03T07:47:39.457Z,1.80
2023-05-03T07:50:07.087Z,1.60
2023-05-03T07:52:37.525Z,2.10
2023-05-03T07:55:04.804Z,1.70
2023-05-03T07:57:31.584Z,1.50
2023-05-03T07:59:58.437Z,1.40
2023-05-03T08:02:25.434Z,2.50
2023-05-03T08:04:52.543Z,1.90
2023-05-03T08:07:19.740Z,1.70
2023-05-03T08:09:47.798Z,1.20
2023-05-03T08:12:14.549Z,1.60
2023-05-03T08:14:41.615Z,1.30
2023-05-03T08:17:09.636Z,1.50
2023-05-03T08:19:36.432Z,1.80
2023-05-03T08:22:03.304Z,1.40
2023-05-03T08:24:30.350Z,1.50
2023-05-03T08:26:57.081Z,1.30
2023-05-03T08:29:24.800Z,1.40
2023-05-03T08:31:53.605Z,1.40
2023-05-03T08:34:20.653Z,1.40
2023-05-03T08:36:47.467Z,1.50
2023-05-03T08:39:15.440Z,2.00
2023-05-03T08:41:42.185Z,1.20
2023-05-03T08:44:08.890Z,1.80
2023-05-03T08:46:37.522Z,1.60
2023-05-03T08:49:04.591Z,1.40
2023-05-03T08:51:31.829Z,2.10
2023-05-03T08:53:59.453Z,1.70
2023-05-03T08:56:30.180Z,1.40
2023-05-03T08:58:57.264Z,1.40
2023-05-03T09:01:24.006Z,1.40
2023-05-03T09:03:51.843Z,1.70
2023-05-03T09:06:20.015Z,1.30
2023-05-03T09:08:46.922Z,1.50
2023-05-03T09:11:30.297Z,1.50
2023-05-03T09:14:16.579Z,1.90
2023-05-03T09:16:45.541Z,1.60
2023-05-03T09:19:13.684Z,2.00
2023-05-03T09:23:39.320Z,2.00
2023-05-03T09:26:07.491Z,1.70
2023-05-03T09:28:41.379Z,1.80
2023-05-03T09:31:08.105Z,1.50
2023-05-03T09:33:35.051Z,1.60
2023-05-03T09:36:05.587Z,2.00
2023-05-03T09:38:38.892Z,2.00
2023-05-03T09:41:08.482Z,2.00
2023-05-03T09:43:38.132Z,2.60
2023-05-03T09:46:09.558Z,2.00
2023-05-03T09:48:39.841Z,1.70
2023-05-03T09:51:06.876Z,1.80
2023-05-03T09:53:34.482Z,1.70
2023-05-03T09:56:06.076Z,1.80
2023-05-03T09:58:34.908Z,2.10
2023-05-03T10:01:04.595Z,1.70
2023-05-03T10:06:03.818Z,2.10
2023-05-03T10:08:35.269Z,1.80
2023-05-03T10:11:03.822Z,1.90
2023-05-03T10:13:30.564Z,2.20
2023-05-03T10:16:09.552Z,1.80
2023-05-03T10:18:48.550Z,2.00
2023-05-03T10:21:18.895Z,1.90
2023-05-03T10:24:16.075Z,1.80
2023-05-03T10:26:47.633Z,2.20
2023-05-03T10:29:38.902Z,1.90
2023-05-03T10:32:05.945Z,2.10
2023-05-03T10:34:33.686Z,1.80
2023-05-03T10:37:08.492Z,1.70
2023-05-03T10:39:35.267Z,2.10
2023-05-03T10:42:03.382Z,1.80
2023-05-03T10:44:48.827Z,2.00
2023-05-03T10:47:23.649Z,2.10
2023-05-03T10:50:15.398Z,2.20
2023-05-03T10:52:42.181Z,2.20
2023-05-03T10:55:13.401Z,2.30
2023-05-03T10:57:41.889Z,2.20
2023-05-03T11:00:16.621Z,2.70
2023-05-03T11:03:02.191Z,1.80
2023-05-03T11:05:29.309Z,1.80
2023-05-03T11:08:22.729Z,1.60
2023-05-03T11:10:51.414Z,2.40
2023-05-03T11:13:18.402Z,2.30
2023-05-03T11:15:47.667Z,2.70
2023-05-03T11:18:15.157Z,2.20
2023-05-03T11:20:41.944Z,2.60
2023-05-03T11:23:08.659Z,2.20
2023-05-03T11:25:35.492Z,2.20
2023-05-03T11:28:03.974Z,2.60
2023-05-03T11:30:33.075Z,1.90
2023-05-03T11:33:00.079Z,2.10
2023-05-03T11:35:29.008Z,2.80
2023-05-03T11:37:56.325Z,2.70
2023-05-03T11:40:24.485Z,2.30
2023-05-03T11:43:00.930Z,2.40
2023-05-03T11:45:33.068Z,1.90
2023-05-03T11:47:59.962Z,1.90
2023-05-03T11:50:46.656Z,2.80
2023-05-03T11:53:17.536Z,2.10
2023-05-03T11:58:17.831Z,2.20
2023-05-03T12:00:46.537Z,2.10
2023-05-03T12:03:31.328Z,3.50
2023-05-03T12:05:59.975Z,2.40
2023-05-03T12:08:32.136Z,2.50
2023-05-03T12:11:03.391Z,2.20
2023-05-03T12:13:37.770Z,2.50
2023-05-03T12:16:12.851Z,2.60
2023-05-03T12:18:56.408Z,2.40
2023-05-03T12:26:26.440Z,2.10
2023-05-03T12:28:55.946Z,1.90
2023-05-03T12:31:23.945Z,2.10
2023-05-03T12:36:24.723Z,2.30
2023-05-03T12:38:56.129Z,2.20
2023-05-03T12:43:58.637Z,2.20
2023-05-03T12:46:34.587Z,2.30
2023-05-03T12:49:06.335Z,2.50
2023-05-03T12:51:34.322Z,2.10
2023-05-03T12:54:02.074Z,1.80
2023-05-03T12:56:32.527Z,2.00
2023-05-03T13:06:38.454Z,3.30
2023-05-03T13:09:09.033Z,2.30
2023-05-03T13:11:36.510Z,2.40
2023-05-03T13:14:03.801Z,2.30
2023-05-03T13:16:32.445Z,2.20
2023-05-03T13:18:59.273Z,1.90
2023-05-03T13:21:27.515Z,2.60
2023-05-03T13:23:54.317Z,2.10
2023-05-03T13:26:21.197Z,2.30
2023-05-03T13:28:48.068Z,2.40
2023-05-03T13:31:14.980Z,2.40
2023-05-03T13:33:41.710Z,2.40
2023-05-03T13:36:08.721Z,2.30
2023-05-03T13:38:35.584Z,2.40
2023-05-03T13:41:06.674Z,2.40
2023-05-03T13:43:35.078Z,2.30
2023-05-03T13:46:02.327Z,1.80
2023-05-03T13:48:31.729Z,2.40
2023-05-03T13:50:59.274Z,2.40
2023-05-03T13:53:27.064Z,2.10
2023-05-03T13:55:53.853Z,2.40
2023-05-03T13:58:20.626Z,2.00
2023-05-03T14:00:51.539Z,2.60
2023-05-03T14:05:45.111Z,2.20
2023-05-03T14:08:12.055Z,2.40
2023-05-03T14:10:39.550Z,2.70
2023-05-03T14:13:08.083Z,2.20
2023-05-03T14:15:41.410Z,2.90
2023-05-03T14:18:08.872Z,2.70
2023-05-03T14:20:36.256Z,2.40
2023-05-03T14:23:03.824Z,2.30
2023-05-03T14:25:30.970Z,2.40
2023-05-03T14:27:57.772Z,3.10
2023-05-03T14:30:24.556Z,3.20
2023-05-03T14:32:52.663Z,2.60
2023-05-03T14:35:20.273Z,3.10
2023-05-03T14:37:47.236Z,2.90
2023-05-03T14:40:14.502Z,2.60
2023-05-03T14:42:41.273Z,3.20
2023-05-03T14:45:10.923Z,3.40
2023-05-03T14:47:39.315Z,3.20
2023-05-03T14:50:06.997Z,2.80
2023-05-03T14:52:33.993Z,3.20
2023-05-03T14:55:01.829Z,3.10
2023-05-03T14:57:28.928Z,3.00
2023-05-03T14:59:55.961Z,2.70
2023-05-03T15:02:22.832Z,2.90
2023-05-03T15:04:50.343Z,3.00
2023-05-03T15:07:17.127Z,2.60
2023-05-03T15:09:44.858Z,2.90
2023-05-03T15:12:11.893Z,2.60
2023-05-03T15:14:38.739Z,2.70
2023-05-03T15:17:05.693Z,3.20
2023-05-03T15:19:32.547Z,3.80
2023-05-03T15:21:59.363Z,2.90
2023-05-03T15:24:26.848Z,3.00
2023-05-03T15:26:53.637Z,3.30
2023-05-03T15:29:20.444Z,3.80
2023-05-03T15:31:47.532Z,3.50
2023-05-03T15:34:14.391Z,3.00
2023-05-03T15:36:41.393Z,3.50
2023-05-03T15:39:09.503Z,3.30
2023-05-03T15:41:36.418Z,3.10
2023-05-03T15:44:05.339Z,3.40
2023-05-03T15:46:32.760Z,3.60
2023-05-03T15:48:59.686Z,3.20
2023-05-03T15:51:27.824Z,3.10
2023-05-03T15:53:54.721Z,3.60
2023-05-03T15:56:21.896Z,3.30
2023-05-03T15:58:50.068Z,3.80
2023-05-03T16:01:17.183Z,3.30
2023-05-03T16:03:44.621Z,3.30
2023-05-03T16:06:11.442Z,3.40
2023-05-03T16:08:38.277Z,3.30
2023-05-03T16:11:05.207Z,4.30
2023-05-03T16:13:32.034Z,4.50
2023-05-03T16:15:58.919Z,3.60
2023-05-03T16:18:27.087Z,3.60
2023-05-03T16:20:54.222Z,3.60
2023-05-03T16:23:20.955Z,4.40
2023-05-03T16:25:47.776Z,3.90
2023-05-03T16:28:14.761Z,3.20
2023-05-03T16:30:42.568Z,3.40
2023-05-03T16:33:10.374Z,3.70
2023-05-03T16:35:37.274Z,4.90
2023-05-03T16:38:04.106Z,6.20
2023-05-03T16:40:32.244Z,4.20
2023-05-03T16:42:58.988Z,4.00
2023-05-03T16:45:26.176Z,4.00
2023-05-03T16:47:53.207Z,3.60
2023-05-03T16:50:20.172Z,3.50
2023-05-03T16:52:46.894Z,3.40
2023-05-03T16:55:14.567Z,3.80
2023-05-03T16:57:41.819Z,4.30
2023-05-03T17:00:10.199Z,3.30
2023-05-03T17:02:42.186Z,3.90
2023-05-03T17:05:12.796Z,3.80
2023-05-03T17:07:41.792Z,4.20
2023-05-03T17:10:09.489Z,4.70
2023-05-03T17:12:36.623Z,3.60
2023-05-03T17:15:04.022Z,5.00
2023-05-03T17:17:33.855Z,6.60
2023-05-03T17:20:00.706Z,8.80
2023-05-03T17:22:28.165Z,9.30
2023-05-03T17:24:57.259Z,7.20
2023-05-03T17:27:27.054Z,6.00
2023-05-03T17:29:57.424Z,5.50
2023-05-03T17:32:24.310Z,5.70
2023-05-03T17:34:51.149Z,5.20
2023-05-03T17:37:17.890Z,4.40
2023-05-03T17:39:44.657Z,6.90
2023-05-03T17:42:11.482Z,5.20
2023-05-03T17:44:38.290Z,5.30
2023-05-03T17:47:05.123Z,6.90
2023-05-03T17:49:33.142Z,7.00
2023-05-03T17:52:00.216Z,7.50
2023-05-03T17:54:30.371Z,7.50
2023-05-03T17:56:57.092Z,8.70
2023-05-03T17:59:23.916Z,8.00
2023-05-03T18:01:50.725Z,8.70
2023-05-03T18:04:17.531Z,7.80
2023-05-03T18:06:45.728Z,8.80
2023-05-03T18:09:13.300Z,6.90
2023-05-03T18:11:41.320Z,8.00
2023-05-03T18:14:08.082Z,6.90
2023-05-03T18:16:35.895Z,4.10
2023-05-03T18:19:03.839Z,6.10
2023-05-03T18:21:30.651Z,6.80
2023-05-03T18:23:57.396Z,7.00
2023-05-03T18:26:25.384Z,6.20
2023-05-03T18:28:53.629Z,5.60
2023-05-03T18:31:21.507Z,5.40
2023-05-03T18:33:48.981Z,5.10
2023-05-03T18:36:17.131Z,5.00
2023-05-03T18:38:44.364Z,5.30
2023-05-03T18:41:15.104Z,5.80
2023-05-03T18:43:43.633Z,5.20
2023-05-03T18:46:10.800Z,5.20
2023-05-03T18:48:37.568Z,5.10
2023-05-03T18:51:04.788Z,4.80
2023-05-03T18:53:34.292Z,5.60
2023-05-03T18:56:04.808Z,4.90
2023-05-03T18:58:31.790Z,5.50
2023-05-03T19:01:00.238Z,5.00
2023-05-03T19:03:30.569Z,5.20
2023-05-03T19:06:04.279Z,3.90
2023-05-03T19:08:31.694Z,5.00
2023-05-03T19:11:06.572Z,5.50
2023-05-03T19:13:33.396Z,5.90
2023-05-03T19:16:00.158Z,5.20
2023-05-03T19:18:29.710Z,5.70
2023-05-03T19:20:57.352Z,5.40
2023-05-03T19:23:24.176Z,5.80
2023-05-03T19:25:51.001Z,5.60
2023-05-03T19:28:17.708Z,6.30
2023-05-03T19:30:45.805Z,5.40
2023-05-03T19:33:12.821Z,5.10
2023-05-03T19:35:39.953Z,5.90
2023-05-03T19:38:07.703Z,5.90
2023-05-03T19:40:34.468Z,5.70
2023-05-03T19:43:02.268Z,5.90
2023-05-03T19:45:29.031Z,5.90
2023-05-03T19:47:56.001Z,6.20
2023-05-03T19:50:22.826Z,6.40
2023-05-03T19:52:53.191Z,5.80
2023-05-03T19:55:20.193Z,6.40
2023-05-03T19:57:47.358Z,6.00
2023-05-03T20:00:15.810Z,6.40
2023-05-03T20:02:45.382Z,6.80
2023-05-03T20:05:12.154Z,6.00
2023-05-03T20:07:38.933Z,6.20
2023-05-03T20:10:06.050Z,6.70
2023-05-03T20:12:34.134Z,5.90
2023-05-03T20:15:01.124Z,5.80
2023-05-03T20:17:27.986Z,6.00
2023-05-03T20:19:54.885Z,5.80
2023-05-03T20:22:21.653Z,6.50
2023-05-03T20:24:53.304Z,5.70
2023-05-03T20:27:23.108Z,6.00
2023-05-03T20:29:50.103Z,5.70
2023-05-03T20:32:17.400Z,6.10
2023-05-03T20:34:44.608Z,6.40
2023-05-03T20:37:11.364Z,5.40
2023-05-03T20:39:38.059Z,6.10
2023-05-03T20:42:05.125Z,6.10
2023-05-03T20:44:32.503Z,6.20
2023-05-03T20:46:59.213Z,6.80
2023-05-03T20:49:26.177Z,6.30
2023-05-03T20:51:53.225Z,6.30
2023-05-03T20:54:31.968Z,6.60
2023-05-03T20:56:58.683Z,6.20
2023-05-03T20:59:25.634Z,6.50
2023-05-03T21:01:53.466Z,7.10
2023-05-03T21:04:20.316Z,6.70
2023-05-03T21:06:47.606Z,5.60
2023-05-03T21:09:14.437Z,6.60
2023-05-03T21:11:45.103Z,6.20
2023-05-03T21:14:12.021Z,6.90
2023-05-03T21:16:42.896Z,5.80
2023-05-03T21:19:09.853Z,6.20
2023-05-03T21:21:43.044Z,5.70
2023-05-03T21:24:10.905Z,6.20
2023-05-03T21:26:37.721Z,5.90
2023-05-03T21:29:05.449Z,5.70
2023-05-03T21:31:32.201Z,5.70
2023-05-03T21:33:58.998Z,6.10
2023-05-03T21:36:26.092Z,5.30
2023-05-03T21:40:24.286Z,6.20
2023-05-03T21:42:53.966Z,6.10
2023-05-03T21:45:21.214Z,4.90
2023-05-03T21:47:48.797Z,5.70
2023-05-03T21:50:15.649Z,5.60
2023-05-03T21:52:42.990Z,5.00
2023-05-03T21:55:09.956Z,5.90
2023-05-03T21:57:37.068Z,5.90
2023-05-03T22:00:05.725Z,6.10
2023-05-03T22:02:35.310Z,6.10
2023-05-03T22:05:02.534Z,6.00
2023-05-03T22:07:29.308Z,6.10
2023-05-03T22:09:56.025Z,5.60
2023-05-03T22:12:24.445Z,5.90
2023-05-03T22:14:52.403Z,6.20
2023-05-03T22:17:19.143Z,5.90
2023-05-03T22:19:45.955Z,6.40
2023-05-03T22:22:12.764Z,5.90
2023-05-03T22:24:40.776Z,6.10
2023-05-03T22:27:07.846Z,6.50
2023-05-03T22:29:34.571Z,6.40
2023-05-03T22:32:04.598Z,6.90
2023-05-03T22:34:31.520Z,6.60
2023-05-03T22:36:58.295Z,6.80
2023-05-03T22:39:25.032Z,6.40
2023-05-03T22:41:51.782Z,6.80
2023-05-03T22:44:18.521Z,6.40
2023-05-03T22:46:45.420Z,7.10
2023-05-03T22:49:12.148Z,6.70
2023-05-03T22:51:38.872Z,7.00
2023-05-03T22:54:05.850Z,7.30
2023-05-03T22:56:32.660Z,6.50
2023-05-03T22:58:59.396Z,7.50
2023-05-03T23:01:27.240Z,6.20
2023-05-03T23:03:54.182Z,5.90
2023-05-03T23:06:21.162Z,6.80
2023-05-03T23:08:48.125Z,7.10
2023-05-03T23:11:15.174Z,6.80
2023-05-03T23:13:42.001Z,6.50
2023-05-03T23:16:08.805Z,6.30
2023-05-03T23:18:35.661Z,7.20
2023-05-03T23:21:02.600Z,7.20
2023-05-03T23:23:30.099Z,7.60
2023-05-03T23:25:56.814Z,7.30
2023-05-03T23:28:24.100Z,7.10
2023-05-03T23:30:51.251Z,7.30
2023-05-03T23:33:18.642Z,6.70
2023-05-03T23:35:46.278Z,6.60
2023-05-03T23:38:13.033Z,6.90
2023-05-03T23:40:39.934Z,6.90
2023-05-03T23:43:06.630Z,7.60
2023-05-03T23:45:33.427Z,6.90
2023-05-03T23:48:00.436Z,6.90
2023-05-03T23:50:27.524Z,8.20
2023-05-03T23:52:54.249Z,6.20
2023-05-03T23:55:21.088Z,6.90
2023-05-03T23:57:47.820Z,7.90
